createdAt,value
2023-02-15T00:00:12.239Z,68.41
2023-02-15T00:02:40.085Z,67.67
2023-02-15T00:05:09.548Z,67.83
2023-02-15T00:07:37.348Z,68.00
2023-02-15T00:10:08.745Z,67.32
2023-02-15T00:12:36.632Z,68.41
2023-02-15T00:15:04.814Z,67.99
2023-02-15T00:17:32.547Z,67.44
2023-02-15T00:20:00.364Z,68.60
2023-02-15T00:22:28.438Z,68.15
2023-02-15T00:24:56.275Z,67.68
2023-02-15T00:27:25.687Z,67.22
2023-02-15T00:29:53.467Z,69.49
2023-02-15T00:32:21.298Z,68.58
2023-02-15T00:34:49.104Z,68.62
2023-02-15T00:37:16.924Z,68.46
2023-02-15T00:39:44.756Z,68.48
2023-02-15T00:42:12.543Z,68.17
2023-02-15T00:44:41.614Z,68.96
2023-02-15T00:47:09.383Z,70.19
2023-02-15T00:49:37.161Z,70.05
2023-02-15T00:52:05.312Z,68.75
2023-02-15T00:54:33.017Z,68.04
2023-02-15T00:57:00.810Z,68.85
2023-02-15T00:59:28.568Z,68.89
2023-02-15T01:01:57.708Z,68.13
2023-02-15T01:04:25.483Z,69.14
2023-02-15T01:07:00.493Z,69.48
2023-02-15T01:09:28.414Z,70.50
2023-02-15T01:11:56.180Z,69.89
2023-02-15T01:14:24.028Z,68.71
2023-02-15T01:16:51.877Z,69.53
2023-02-15T01:19:21.068Z,70.19
2023-02-15T01:21:48.838Z,69.25
2023-02-15T01:24:17.078Z,69.08
2023-02-15T01:26:44.853Z,69.02
2023-02-15T01:29:12.753Z,68.51
2023-02-15T01:31:40.604Z,67.91
2023-02-15T01:34:08.466Z,68.63
2023-02-15T01:36:37.810Z,68.35
2023-02-15T01:39:05.808Z,69.09
2023-02-15T01:41:33.777Z,68.89
2023-02-15T01:44:04.860Z,68.83
2023-02-15T01:46:40.155Z,68.59
2023-02-15T01:49:16.305Z,68.58
2023-02-15T01:51:50.814Z,69.20
2023-02-15T01:54:28.434Z,69.66
2023-02-15T01:57:01.272Z,69.99
2023-02-15T01:59:31.808Z,69.98
2023-02-15T02:02:03.960Z,71.31
2023-02-15T02:04:40.332Z,71.90
2023-02-15T02:07:13.619Z,74.04
2023-02-15T02:09:41.625Z,73.12
2023-02-15T02:12:11.302Z,72.75
2023-02-15T02:14:42.231Z,72.66
2023-02-15T02:17:19.624Z,70.89
2023-02-15T02:20:36.678Z,71.60
2023-02-15T02:23:25.495Z,72.90
2023-02-15T02:26:54.013Z,72.69
2023-02-15T02:30:09.645Z,73.74
2023-02-15T02:33:30.071Z,74.33
2023-02-15T02:36:11.855Z,74.20
2023-02-15T02:38:55.080Z,74.02
2023-02-15T02:41:32.966Z,73.51
2023-02-15T02:44:12.476Z,75.29
2023-02-15T02:46:54.302Z,74.25
2023-02-15T02:49:34.485Z,75.35
2023-02-15T02:52:03.640Z,74.43
2023-02-15T02:54:36.491Z,73.17
2023-02-15T02:57:10.700Z,73.44
2023-02-15T02:59:47.260Z,72.30
2023-02-15T03:02:22.491Z,72.79
2023-02-15T03:05:04.517Z,74.28
2023-02-15T03:07:34.263Z,73.68
2023-02-15T03:10:06.943Z,73.20
2023-02-15T03:12:39.066Z,72.73
2023-02-15T03:15:15.084Z,74.52
2023-02-15T03:17:49.851Z,76.32
2023-02-15T03:20:26.323Z,75.08
2023-02-15T03:23:01.718Z,73.94
2023-02-15T03:25:36.246Z,74.24
2023-02-15T03:28:09.021Z,73.48
2023-02-15T03:30:39.955Z,73.92
2023-02-15T03:33:10.516Z,77.46
2023-02-15T03:35:54.239Z,77.99
2023-02-15T03:38:29.980Z,78.06
2023-02-15T03:41:14.141Z,77.20
2023-02-15T03:43:53.530Z,75.44
2023-02-15T03:46:30.234Z,75.56
2023-02-15T03:49:05.778Z,74.75
2023-02-15T03:51:41.031Z,75.67
2023-02-15T03:54:12.446Z,75.45
2023-02-15T03:57:03.636Z,75.45
2023-02-15T03:59:48.764Z,76.62
2023-02-15T04:02:29.547Z,76.23
2023-02-15T04:04:57.288Z,77.27
2023-02-15T04:07:26.475Z,77.11
2023-02-15T04:10:11.887Z,78.33
2023-02-15T04:12:39.648Z,77.79
2023-02-15T04:15:40.487Z,78.59
2023-02-15T04:18:08.260Z,79.01
2023-02-15T04:20:53.409Z,79.10
2023-02-15T04:23:40.020Z,78.53
2023-02-15T04:26:08.019Z,78.40
2023-02-15T04:28:35.827Z,77.09
2023-02-15T04:31:03.606Z,77.03
2023-02-15T04:33:31.421Z,76.70
2023-02-15T04:35:59.443Z,76.52
2023-02-15T04:38:28.762Z,75.91
2023-02-15T04:40:56.544Z,76.21
2023-02-15T04:43:24.333Z,75.83
2023-02-15T04:45:52.722Z,75.40
2023-02-15T04:48:20.548Z,76.14
2023-02-15T04:50:48.352Z,77.38
2023-02-15T04:53:18.257Z,79.63
2023-02-15T04:55:47.456Z,79.08
2023-02-15T04:58:15.267Z,78.56
2023-02-15T05:00:43.142Z,79.20
2023-02-15T05:03:11.175Z,77.89
2023-02-15T05:05:38.975Z,78.54
2023-02-15T05:08:06.788Z,79.82
2023-02-15T05:10:34.567Z,78.09
2023-02-15T05:13:03.661Z,77.47
2023-02-15T05:15:31.457Z,78.51
2023-02-15T05:17:59.277Z,78.60
2023-02-15T05:20:27.176Z,78.53
2023-02-15T05:22:55.960Z,77.90
2023-02-15T05:25:41.582Z,77.47
2023-02-15T05:28:22.097Z,76.45
2023-02-15T05:30:51.903Z,77.06
2023-02-15T05:33:20.018Z,76.58
2023-02-15T05:35:47.766Z,76.86
2023-02-15T05:38:15.525Z,77.27
2023-02-15T05:40:43.305Z,75.99
2023-02-15T05:43:12.536Z,76.37
2023-02-15T05:45:40.311Z,76.33
2023-02-15T05:48:08.110Z,77.70
2023-02-15T05:50:35.858Z,77.15
2023-02-15T05:53:03.655Z,76.81
2023-02-15T05:55:31.408Z,76.68
2023-02-15T05:57:59.291Z,76.13
2023-02-15T06:00:28.476Z,77.86
2023-02-15T06:02:56.184Z,78.20
2023-02-15T06:05:24.345Z,78.66
2023-02-15T06:07:52.205Z,77.85
2023-02-15T06:10:20.338Z,78.46
2023-02-15T06:12:48.190Z,77.74
2023-02-15T06:15:16.114Z,78.00
2023-02-15T06:17:45.683Z,78.31
2023-02-15T06:20:14.851Z,78.10
2023-02-15T06:22:42.648Z,77.97
2023-02-15T06:25:12.157Z,77.40
2023-02-15T06:27:43.392Z,76.37
2023-02-15T06:30:13.192Z,76.14
2023-02-15T06:32:41.534Z,76.23
2023-02-15T06:35:10.888Z,75.47
2023-02-15T06:37:38.664Z,76.66
2023-02-15T06:40:09.068Z,77.74
2023-02-15T06:42:36.815Z,76.50
2023-02-15T06:45:07.010Z,75.92
2023-02-15T06:47:35.465Z,76.02
2023-02-15T06:50:03.330Z,76.54
2023-02-15T06:52:32.523Z,76.62
2023-02-15T06:55:00.326Z,76.79
2023-02-15T06:57:28.171Z,76.18
2023-02-15T06:59:56.127Z,76.76
2023-02-15T07:02:23.886Z,75.59
2023-02-15T07:04:51.630Z,75.25
2023-02-15T07:07:19.687Z,75.35
2023-02-15T07:09:48.968Z,75.11
2023-02-15T07:12:35.082Z,75.23
2023-02-15T07:15:05.345Z,76.11
2023-02-15T07:17:35.871Z,75.92
2023-02-15T07:20:05.576Z,75.01
2023-02-15T07:22:34.991Z,75.23
2023-02-15T07:25:04.448Z,75.13
2023-02-15T07:27:32.920Z,75.13
2023-02-15T07:30:01.049Z,74.21
2023-02-15T07:32:31.379Z,74.24
2023-02-15T07:35:00.028Z,73.79
2023-02-15T07:37:29.128Z,73.23
2023-02-15T07:39:56.951Z,73.11
2023-02-15T07:42:26.124Z,71.97
2023-02-15T07:44:54.279Z,71.85
2023-02-15T07:47:22.034Z,71.01
2023-02-15T07:49:50.358Z,71.18
2023-02-15T07:52:18.217Z,71.07
2023-02-15T07:54:46.004Z,69.95
2023-02-15T07:57:13.747Z,67.37
2023-02-15T07:59:42.931Z,66.36
2023-02-15T08:02:12.724Z,65.32
2023-02-15T08:04:40.951Z,64.94
2023-02-15T08:07:08.852Z,64.63
2023-02-15T08:09:36.587Z,63.85
2023-02-15T08:12:05.192Z,63.26
2023-02-15T08:14:33.508Z,60.24
2023-02-15T08:17:03.635Z,60.30
2023-02-15T08:19:35.380Z,60.22
2023-02-15T08:22:06.293Z,57.97
2023-02-15T08:24:37.776Z,59.90
2023-02-15T08:27:07.848Z,58.08
2023-02-15T08:29:38.597Z,57.06
2023-02-15T08:32:11.132Z,55.87
2023-02-15T08:34:42.721Z,56.73
2023-02-15T08:37:10.829Z,53.18
2023-02-15T08:39:38.988Z,54.43
2023-02-15T08:42:06.855Z,53.00
2023-02-15T08:44:34.618Z,52.07
2023-02-15T08:47:04.724Z,53.69
2023-02-15T08:49:34.211Z,52.64
2023-02-15T08:52:02.098Z,52.31
2023-02-15T08:54:29.907Z,51.86
2023-02-15T08:56:57.840Z,54.06
2023-02-15T08:59:27.775Z,51.79
2023-02-15T09:01:56.639Z,53.14
2023-02-15T09:04:24.552Z,52.75
2023-02-15T09:06:54.169Z,50.37
2023-02-15T09:09:22.776Z,50.99
2023-02-15T09:11:58.702Z,52.44
2023-02-15T09:14:28.865Z,53.01
2023-02-15T09:16:57.266Z,53.22
2023-02-15T09:19:26.040Z,51.64
2023-02-15T09:21:55.452Z,51.23
2023-02-15T09:24:23.344Z,48.75
2023-02-15T09:26:51.473Z,48.98
2023-02-15T09:29:21.057Z,49.65
2023-02-15T09:31:51.582Z,46.96
2023-02-15T09:34:22.643Z,45.97
2023-02-15T09:36:51.876Z,46.53
2023-02-15T09:39:24.535Z,45.87
2023-02-15T09:42:37.206Z,45.23
2023-02-15T09:45:30.986Z,47.09
2023-02-15T09:48:41.582Z,44.14
2023-02-15T09:51:45.301Z,45.13
2023-02-15T09:54:40.528Z,45.84
2023-02-15T09:57:20.680Z,45.23
2023-02-15T10:00:06.134Z,44.87
2023-02-15T10:02:58.969Z,44.71
2023-02-15T10:05:44.236Z,45.96
2023-02-15T10:08:51.024Z,46.12
2023-02-15T10:11:43.141Z,46.67
2023-02-15T10:14:38.795Z,45.47
2023-02-15T10:17:27.221Z,46.75
2023-02-15T10:20:12.747Z,48.25
2023-02-15T10:22:59.605Z,47.90
2023-02-15T10:25:47.262Z,47.56
2023-02-15T10:28:21.469Z,48.95
2023-02-15T10:30:52.193Z,48.59
2023-02-15T10:33:41.333Z,51.10
2023-02-15T10:36:29.584Z,48.56
2023-02-15T10:39:09.465Z,50.52
2023-02-15T10:41:52.792Z,49.98
2023-02-15T10:44:40.590Z,49.38
2023-02-15T10:47:44.653Z,48.01
2023-02-15T10:50:31.760Z,51.54
2023-02-15T10:53:19.096Z,48.77
2023-02-15T10:56:01.147Z,50.06
2023-02-15T10:58:45.820Z,49.10
2023-02-15T11:01:26.474Z,49.21
2023-02-15T11:04:37.791Z,48.19
2023-02-15T11:07:14.591Z,47.54
2023-02-15T11:09:49.305Z,46.89
2023-02-15T11:12:24.718Z,47.68
2023-02-15T11:15:02.037Z,47.19
2023-02-15T11:17:40.087Z,47.23
2023-02-15T11:20:25.055Z,45.51
2023-02-15T11:22:55.498Z,45.07
2023-02-15T11:25:32.093Z,45.20
2023-02-15T11:28:05.601Z,44.09
2023-02-15T11:30:46.140Z,43.05
2023-02-15T11:33:26.249Z,43.06
2023-02-15T11:36:02.631Z,42.24
2023-02-15T11:38:34.654Z,41.54
2023-02-15T11:41:07.803Z,41.44
2023-02-15T11:43:45.127Z,41.46
2023-02-15T11:46:15.816Z,40.33
2023-02-15T11:48:45.089Z,39.53
2023-02-15T11:51:18.196Z,38.50
2023-02-15T11:53:48.259Z,39.00
2023-02-15T11:56:18.766Z,40.17
2023-02-15T11:58:52.866Z,42.00
2023-02-15T12:01:31.111Z,42.30
2023-02-15T12:04:06.864Z,41.18
2023-02-15T12:06:39.988Z,42.38
2023-02-15T12:09:23.719Z,42.95
2023-02-15T12:11:51.658Z,42.17
2023-02-15T12:14:19.533Z,41.59
2023-02-15T12:16:51.344Z,41.47
2023-02-15T12:19:33.785Z,41.62
2023-02-15T12:22:05.754Z,40.93
2023-02-15T12:24:40.081Z,41.86
2023-02-15T12:27:19.219Z,40.68
2023-02-15T12:29:53.801Z,40.21
2023-02-15T12:32:28.386Z,40.68
2023-02-15T12:35:08.899Z,39.79
2023-02-15T12:37:37.158Z,41.65
2023-02-15T12:40:22.470Z,41.70
2023-02-15T12:42:50.439Z,40.77
2023-02-15T12:45:28.862Z,39.14
2023-02-15T12:48:16.760Z,39.51
2023-02-15T12:51:06.218Z,38.37
2023-02-15T12:53:37.309Z,39.67
2023-02-15T12:56:08.403Z,39.47
2023-02-15T12:58:37.552Z,39.80
2023-02-15T13:01:20.428Z,39.16
2023-02-15T13:04:23.091Z,39.41
2023-02-15T13:06:56.471Z,38.63
2023-02-15T13:09:40.013Z,39.79
2023-02-15T13:12:24.219Z,39.40
2023-02-15T13:14:55.775Z,39.77
2023-02-15T13:17:30.430Z,38.83
2023-02-15T13:20:05.605Z,38.30
2023-02-15T13:22:43.893Z,37.64
2023-02-15T13:25:19.759Z,37.42
2023-02-15T13:27:53.838Z,38.58
2023-02-15T13:30:32.112Z,39.87
2023-02-15T13:33:05.716Z,38.73
2023-02-15T13:35:46.524Z,39.09
2023-02-15T13:38:47.709Z,38.89
2023-02-15T13:41:25.367Z,39.16
2023-02-15T13:44:09.614Z,39.32
2023-02-15T13:46:54.382Z,40.27
2023-02-15T13:49:45.794Z,40.57
2023-02-15T13:52:24.131Z,39.64
2023-02-15T13:55:33.624Z,40.05
2023-02-15T13:58:46.167Z,39.82
2023-02-15T14:01:26.004Z,40.61
2023-02-15T14:04:29.895Z,41.24
2023-02-15T14:07:21.006Z,40.60
2023-02-15T14:10:04.207Z,41.34
2023-02-15T14:12:57.936Z,44.17
2023-02-15T14:15:40.569Z,44.70
2023-02-15T14:18:26.199Z,43.78
2023-02-15T14:21:08.428Z,44.79
2023-02-15T14:23:59.035Z,44.77
2023-02-15T14:26:43.780Z,46.20
2023-02-15T14:29:31.376Z,46.16
2023-02-15T14:32:10.095Z,45.86
2023-02-15T14:34:50.944Z,46.46
2023-02-15T14:37:33.857Z,47.28
2023-02-15T14:40:29.068Z,47.08
2023-02-15T14:43:08.787Z,46.49
2023-02-15T14:45:50.574Z,46.84
2023-02-15T14:48:27.690Z,47.57
2023-02-15T14:50:55.489Z,47.32
2023-02-15T14:53:43.046Z,46.60
2023-02-15T14:56:24.862Z,47.23
2023-02-15T14:59:10.759Z,47.84
2023-02-15T15:01:42.480Z,48.20
2023-02-15T15:04:16.038Z,48.38
2023-02-15T15:06:45.677Z,48.41
2023-02-15T15:09:22.472Z,49.07
2023-02-15T15:11:52.461Z,48.97
2023-02-15T15:14:41.312Z,49.69
2023-02-15T15:17:14.991Z,48.65
2023-02-15T15:20:14.449Z,50.39
2023-02-15T15:22:44.803Z,49.66
2023-02-15T15:25:46.545Z,49.63
2023-02-15T15:28:56.897Z,49.86
2023-02-15T15:31:34.203Z,51.95
2023-02-15T15:35:17.937Z,51.06
2023-02-15T15:38:31.319Z,50.57
2023-02-15T15:41:29.546Z,51.06
2023-02-15T15:44:55.279Z,51.29
2023-02-15T15:48:05.222Z,51.12
2023-02-15T15:50:35.618Z,50.91
2023-02-15T15:53:07.246Z,51.66
2023-02-15T15:55:36.589Z,51.84
2023-02-15T15:58:10.171Z,51.31
2023-02-15T16:00:46.444Z,52.23
2023-02-15T16:03:17.571Z,51.86
2023-02-15T16:05:45.474Z,52.38
2023-02-15T16:08:13.381Z,52.31
2023-02-15T16:10:42.736Z,52.12
2023-02-15T16:13:16.833Z,52.82
2023-02-15T16:15:50.452Z,53.44
2023-02-15T16:18:20.810Z,53.03
2023-02-15T16:20:55.689Z,53.42
2023-02-15T16:24:05.873Z,54.73
2023-02-15T16:27:07.438Z,54.89
2023-02-15T16:29:36.856Z,55.32
2023-02-15T16:32:16.542Z,54.91
2023-02-15T16:34:56.954Z,55.14
2023-02-15T16:37:28.192Z,55.12
2023-02-15T16:39:57.576Z,55.21
2023-02-15T16:42:40.080Z,55.91
2023-02-15T16:45:16.540Z,56.30
2023-02-15T16:47:48.947Z,56.31
2023-02-15T16:50:21.981Z,56.86
2023-02-15T16:52:50.443Z,57.02
2023-02-15T16:55:25.282Z,56.05
2023-02-15T16:57:58.557Z,56.36
2023-02-15T17:00:33.142Z,56.44
2023-02-15T17:03:03.960Z,57.00
2023-02-15T17:05:34.524Z,56.44
2023-02-15T17:08:17.392Z,56.57
2023-02-15T17:11:03.990Z,57.00
2023-02-15T17:13:32.558Z,58.33
2023-02-15T17:16:31.116Z,56.75
2023-02-15T17:19:00.685Z,56.37
2023-02-15T17:21:35.276Z,56.57
2023-02-15T17:24:05.913Z,56.14
2023-02-15T17:26:37.768Z,55.87
2023-02-15T17:29:25.295Z,56.78
2023-02-15T17:31:58.539Z,57.59
2023-02-15T17:35:04.157Z,56.29
2023-02-15T17:37:47.613Z,56.91
2023-02-15T17:40:28.673Z,56.59
2023-02-15T17:42:57.041Z,57.49
2023-02-15T17:45:32.344Z,57.15
2023-02-15T17:48:06.716Z,57.58
2023-02-15T17:50:35.050Z,57.92
2023-02-15T17:53:03.834Z,57.70
2023-02-15T17:55:38.843Z,57.30
2023-02-15T17:58:10.132Z,57.07
2023-02-15T18:01:01.716Z,57.36
2023-02-15T18:04:00.958Z,58.20
2023-02-15T18:06:46.931Z,59.06
2023-02-15T18:09:34.354Z,58.49
2023-02-15T18:12:03.063Z,57.98
2023-02-15T18:14:31.673Z,59.15
2023-02-15T18:16:59.512Z,59.64
2023-02-15T18:19:29.201Z,60.08
2023-02-15T18:21:57.935Z,59.84
2023-02-15T18:24:27.655Z,59.76
2023-02-15T18:26:56.028Z,60.61
2023-02-15T18:29:23.782Z,60.85
2023-02-15T18:31:56.900Z,59.83
2023-02-15T18:34:30.917Z,59.11
2023-02-15T18:37:00.931Z,59.05
2023-02-15T18:39:37.877Z,58.48
2023-02-15T18:42:07.234Z,59.15
2023-02-15T18:44:35.032Z,60.04
2023-02-15T18:47:02.803Z,61.29
2023-02-15T18:49:32.126Z,60.05
2023-02-15T18:51:59.952Z,60.39
2023-02-15T18:54:27.735Z,59.39
2023-02-15T18:56:58.996Z,59.62
2023-02-15T18:59:30.443Z,60.46
2023-02-15T19:02:00.290Z,60.67
2023-02-15T19:04:28.121Z,60.28
2023-02-15T19:06:57.307Z,60.19
2023-02-15T19:09:27.761Z,59.96
2023-02-15T19:11:57.455Z,60.52
2023-02-15T19:14:29.773Z,61.64
2023-02-15T19:17:00.097Z,62.20
2023-02-15T19:19:28.722Z,61.69
2023-02-15T19:21:57.921Z,61.47
2023-02-15T19:24:38.108Z,61.88
2023-02-15T19:27:08.056Z,61.96
2023-02-15T19:29:35.879Z,61.21
2023-02-15T19:32:04.192Z,60.38
2023-02-15T19:34:31.983Z,61.19
2023-02-15T19:37:01.188Z,61.35
2023-02-15T19:39:34.807Z,62.21
2023-02-15T19:42:02.727Z,61.73
2023-02-15T19:44:30.451Z,62.22
2023-02-15T19:46:58.441Z,62.98
2023-02-15T19:49:26.239Z,63.32
2023-02-15T19:51:54.452Z,63.45
2023-02-15T19:54:30.759Z,63.65
2023-02-15T19:56:59.105Z,63.55
2023-02-15T19:59:29.695Z,64.31
2023-02-15T20:01:58.024Z,62.75
2023-02-15T20:04:27.516Z,62.96
2023-02-15T20:07:00.391Z,63.14
2023-02-15T20:09:33.719Z,62.55
2023-02-15T20:12:01.499Z,62.66
2023-02-15T20:14:29.232Z,62.83
2023-02-15T20:16:57.102Z,63.86
2023-02-15T20:19:24.967Z,63.27
2023-02-15T20:21:54.824Z,63.22
2023-02-15T20:24:25.868Z,63.56
2023-02-15T20:26:54.948Z,63.64
2023-02-15T20:29:23.586Z,63.96
2023-02-15T20:31:54.079Z,63.56
2023-02-15T20:34:22.974Z,63.25
2023-02-15T20:36:51.019Z,63.18
2023-02-15T20:39:20.680Z,63.00
2023-02-15T20:41:48.667Z,63.81
2023-02-15T20:44:25.790Z,62.95
2023-02-15T20:46:57.087Z,63.47
2023-02-15T20:49:27.371Z,63.40
2023-02-15T20:51:58.357Z,63.24
2023-02-15T20:54:30.900Z,63.51
2023-02-15T20:56:59.184Z,62.63
2023-02-15T20:59:30.549Z,63.44
2023-02-15T21:02:02.435Z,63.55
2023-02-15T21:04:33.852Z,63.21
2023-02-15T21:07:01.846Z,63.04
2023-02-15T21:09:30.311Z,62.96
2023-02-15T21:12:02.248Z,63.24
2023-02-15T21:14:31.423Z,63.73
2023-02-15T21:16:59.318Z,63.30
2023-02-15T21:19:28.057Z,62.64
2023-02-15T21:21:56.532Z,62.76
2023-02-15T21:24:27.971Z,62.68
2023-02-15T21:26:58.213Z,63.08
2023-02-15T21:29:30.218Z,63.01
2023-02-15T21:32:00.452Z,63.13
2023-02-15T21:34:28.233Z,62.64
2023-02-15T21:36:56.159Z,63.53
2023-02-15T21:39:27.977Z,63.51
2023-02-15T21:42:14.665Z,63.95
2023-02-15T21:45:00.645Z,62.83
2023-02-15T21:47:49.952Z,63.36
2023-02-15T21:50:38.466Z,63.04
2023-02-15T21:53:11.138Z,62.90
2023-02-15T21:55:39.097Z,63.81
2023-02-15T21:58:07.176Z,63.29
2023-02-15T22:00:35.158Z,63.51
2023-02-15T22:03:06.702Z,62.50
2023-02-15T22:05:35.106Z,62.83
2023-02-15T22:08:02.983Z,62.97
2023-02-15T22:10:33.563Z,63.27
2023-02-15T22:13:03.226Z,62.91
2023-02-15T22:15:37.069Z,63.32
2023-02-15T22:18:07.411Z,63.44
2023-02-15T22:20:35.003Z,64.00
2023-02-15T22:23:02.773Z,63.83
2023-02-15T22:25:30.641Z,64.09
2023-02-15T22:27:58.558Z,63.05
2023-02-15T22:30:29.451Z,64.56
2023-02-15T22:32:59.296Z,64.27
2023-02-15T22:35:32.417Z,64.07
2023-02-15T22:38:01.382Z,63.81
2023-02-15T22:40:33.177Z,63.85
2023-02-15T22:43:04.821Z,63.77
2023-02-15T22:45:36.205Z,64.44
2023-02-15T22:48:04.434Z,64.01
2023-02-15T22:50:36.364Z,64.37
2023-02-15T22:53:05.568Z,65.67
2023-02-15T22:55:38.058Z,65.62
2023-02-15T22:58:07.446Z,64.90
2023-02-15T23:00:40.497Z,65.23
2023-02-15T23:03:16.820Z,66.30
2023-02-15T23:05:46.850Z,66.05
2023-02-15T23:08:15.562Z,66.39
2023-02-15T23:10:46.334Z,66.79
2023-02-15T23:13:25.924Z,65.74
2023-02-15T23:15:58.315Z,65.85
2023-02-15T23:18:31.967Z,65.81
2023-02-15T23:21:05.108Z,66.26
2023-02-15T23:23:38.044Z,66.17
2023-02-15T23:26:17.130Z,65.46
2023-02-15T23:28:46.339Z,66.52
2023-02-15T23:31:20.554Z,66.46
2023-02-15T23:33:49.918Z,65.60
2023-02-15T23:36:31.820Z,65.01
2023-02-15T23:39:25.331Z,64.86
2023-02-15T23:41:53.230Z,65.64
2023-02-15T23:44:21.232Z,65.12
2023-02-15T23:46:51.588Z,65.68
2023-02-15T23:49:21.011Z,65.60
2023-02-15T23:51:52.792Z,65.49
2023-02-15T23:54:23.540Z,66.14
2023-02-15T23:56:54.606Z,66.65
2023-02-15T23:59:27.105Z,66.29
